sensor_id;sensor_type;location;lat;lon;timestamp;temperature;humidity
9271;DHT22;4673;53.458;9.940;2023-02-01T00:01:53;4.50;94.30
9271;DHT22;4673;53.458;9.940;2023-02-01T00:04:20;4.50;94.00
9271;DHT22;4673;53.458;9.940;2023-02-01T00:06:45;4.50;93.50
9271;DHT22;4673;53.458;9.940;2023-02-01T00:09:11;4.50;93.50
9271;DHT22;4673;53.458;9.940;2023-02-01T00:11:37;4.50;93.40
9271;DHT22;4673;53.458;9.940;2023-02-01T00:14:03;4.50;92.90
9271;DHT22;4673;53.458;9.940;2023-02-01T00:16:29;4.60;92.80
9271;DHT22;4673;53.458;9.940;2023-02-01T00:19:09;4.60;91.90
9271;DHT22;4673;53.458;9.940;2023-02-01T00:21:35;4.50;92.10
9271;DHT22;4673;53.458;9.940;2023-02-01T00:24:00;4.60;91.90
9271;DHT22;4673;53.458;9.940;2023-02-01T00:26:38;4.60;91.90
9271;DHT22;4673;53.458;9.940;2023-02-01T00:29:08;4.70;91.80
9271;DHT22;4673;53.458;9.940;2023-02-01T00:31:34;4.70;91.70
9271;DHT22;4673;53.458;9.940;2023-02-01T00:34:00;4.80;91.80
9271;DHT22;4673;53.458;9.940;2023-02-01T00:36:25;4.80;91.90
9271;DHT22;4673;53.458;9.940;2023-02-01T00:38:51;4.80;92.00
9271;DHT22;4673;53.458;9.940;2023-02-01T00:41:19;4.80;91.90
9271;DHT22;4673;53.458;9.940;2023-02-01T00:43:46;4.90;91.70
9271;DHT22;4673;53.458;9.940;2023-02-01T00:46:13;5.00;91.60
9271;DHT22;4673;53.458;9.940;2023-02-01T00:48:39;5.00;91.60
9271;DHT22;4673;53.458;9.940;2023-02-01T00:51:08;5.00;91.70
9271;DHT22;4673;53.458;9.940;2023-02-01T00:53:34;5.00;91.60
9271;DHT22;4673;53.458;9.940;2023-02-01T00:56:00;5.00;91.20
9271;DHT22;4673;53.458;9.940;2023-02-01T00:58:27;5.10;91.20
9271;DHT22;4673;53.458;9.940;2023-02-01T01:01:07;5.10;91.20
9271;DHT22;4673;53.458;9.940;2023-02-01T01:03:34;5.10;91.00
9271;DHT22;4673;53.458;9.940;2023-02-01T01:06:03;5.10;91.10
9271;DHT22;4673;53.458;9.940;2023-02-01T01:08:29;5.10;90.90
9271;DHT22;4673;53.458;9.940;2023-02-01T01:10:55;5.10;90.60
9271;DHT22;4673;53.458;9.940;2023-02-01T01:13:21;5.20;90.80
9271;DHT22;4673;53.458;9.940;2023-02-01T01:15:47;5.20;90.90
9271;DHT22;4673;53.458;9.940;2023-02-01T01:18:12;5.20;90.80
9271;DHT22;4673;53.458;9.940;2023-02-01T01:20:39;5.20;90.80
9271;DHT22;4673;53.458;9.940;2023-02-01T01:23:06;5.20;90.70
9271;DHT22;4673;53.458;9.940;2023-02-01T01:25:36;5.30;90.80
9271;DHT22;4673;53.458;9.940;2023-02-01T01:28:02;5.30;90.50
9271;DHT22;4673;53.458;9.940;2023-02-01T01:30:27;5.30;90.70
9271;DHT22;4673;53.458;9.940;2023-02-01T01:32:53;5.30;90.50
9271;DHT22;4673;53.458;9.940;2023-02-01T01:35:19;5.30;90.50
9271;DHT22;4673;53.458;9.940;2023-02-01T01:37:44;5.40;90.40
9271;DHT22;4673;53.458;9.940;2023-02-01T01:40:11;5.30;90.10
9271;DHT22;4673;53.458;9.940;2023-02-01T01:42:40;5.30;90.00
9271;DHT22;4673;53.458;9.940;2023-02-01T01:45:21;5.30;90.10
9271;DHT22;4673;53.458;9.940;2023-02-01T01:47:50;5.30;90.30
9271;DHT22;4673;53.458;9.940;2023-02-01T01:50:22;5.40;90.30
9271;DHT22;4673;53.458;9.940;2023-02-01T01:52:50;5.30;90.00
9271;DHT22;4673;53.458;9.940;2023-02-01T01:55:18;5.30;90.30
9271;DHT22;4673;53.458;9.940;2023-02-01T01:57:50;5.30;90.40
9271;DHT22;4673;53.458;9.940;2023-02-01T02:00:19;5.20;90.20
9271;DHT22;4673;53.458;9.940;2023-02-01T02:02:47;5.20;90.40
9271;DHT22;4673;53.458;9.940;2023-02-01T02:05:15;5.20;90.10
9271;DHT22;4673;53.458;9.940;2023-02-01T02:07:48;5.20;90.40
9271;DHT22;4673;53.458;9.940;2023-02-01T02:10:15;5.20;90.70
9271;DHT22;4673;53.458;9.940;2023-02-01T02:12:44;5.20;90.80
9271;DHT22;4673;53.458;9.940;2023-02-01T02:15:13;5.10;90.90
9271;DHT22;4673;53.458;9.940;2023-02-01T02:17:56;5.20;91.20
9271;DHT22;4673;53.458;9.940;2023-02-01T02:20:30;5.10;91.40
9271;DHT22;4673;53.458;9.940;2023-02-01T02:31:52;5.10;92.00
9271;DHT22;4673;53.458;9.940;2023-02-01T02:35:12;5.10;91.80
9271;DHT22;4673;53.458;9.940;2023-02-01T02:42:52;5.10;92.20
9271;DHT22;4673;53.458;9.940;2023-02-01T02:45:47;5.20;92.40
9271;DHT22;4673;53.458;9.940;2023-02-01T02:49:01;5.20;92.50
9271;DHT22;4673;53.458;9.940;2023-02-01T02:51:59;5.20;92.40
9271;DHT22;4673;53.458;9.940;2023-02-01T02:54:47;5.20;92.30
9271;DHT22;4673;53.458;9.940;2023-02-01T02:57:31;5.10;92.80
9271;DHT22;4673;53.458;9.940;2023-02-01T03:00:19;5.00;93.10
9271;DHT22;4673;53.458;9.940;2023-02-01T03:03:04;5.00;93.50
9271;DHT22;4673;53.458;9.940;2023-02-01T03:05:49;5.00;93.60
9271;DHT22;4673;53.458;9.940;2023-02-01T03:08:29;4.90;93.90
9271;DHT22;4673;53.458;9.940;2023-02-01T03:11:06;4.90;94.20
9271;DHT22;4673;53.458;9.940;2023-02-01T03:19:35;4.80;95.80
9271;DHT22;4673;53.458;9.940;2023-02-01T03:21:48;4.80;96.20
9271;DHT22;4673;53.458;9.940;2023-02-01T03:24:20;4.80;97.10
9271;DHT22;4673;53.458;9.940;2023-02-01T03:26:53;4.80;97.60
9271;DHT22;4673;53.458;9.940;2023-02-01T03:29:27;4.60;98.10
9271;DHT22;4673;53.458;9.940;2023-02-01T03:31:55;4.60;98.70
9271;DHT22;4673;53.458;9.940;2023-02-01T03:34:21;4.60;99.40
9271;DHT22;4673;53.458;9.940;2023-02-01T03:36:52;4.50;99.90
9271;DHT22;4673;53.458;9.940;2023-02-01T03:39:36;4.60;99.90
9271;DHT22;4673;53.458;9.940;2023-02-01T03:42:28;4.50;99.90
9271;DHT22;4673;53.458;9.940;2023-02-01T03:47:48;4.40;99.90
9271;DHT22;4673;53.458;9.940;2023-02-01T03:50:17;4.40;99.90
9271;DHT22;4673;53.458;9.940;2023-02-01T03:52:48;4.40;99.90
9271;DHT22;4673;53.458;9.940;2023-02-01T03:55:18;4.30;99.90
9271;DHT22;4673;53.458;9.940;2023-02-01T03:57:55;4.30;99.90
9271;DHT22;4673;53.458;9.940;2023-02-01T04:00:23;4.20;99.90
9271;DHT22;4673;53.458;9.940;2023-02-01T04:02:49;4.10;99.90
9271;DHT22;4673;53.458;9.940;2023-02-01T04:05:15;4.00;99.90
9271;DHT22;4673;53.458;9.940;2023-02-01T04:07:42;4.00;99.90
9271;DHT22;4673;53.458;9.940;2023-02-01T04:10:08;4.00;99.90
9271;DHT22;4673;53.458;9.940;2023-02-01T04:12:34;4.10;99.90
9271;DHT22;4673;53.458;9.940;2023-02-01T04:15:00;4.10;99.90
9271;DHT22;4673;53.458;9.940;2023-02-01T04:17:25;4.00;99.90
9271;DHT22;4673;53.458;9.940;2023-02-01T04:19:51;3.90;99.90
9271;DHT22;4673;53.458;9.940;2023-02-01T04:22:19;4.00;99.90
9271;DHT22;4673;53.458;9.940;2023-02-01T04:24:45;4.00;99.90
9271;DHT22;4673;53.458;9.940;2023-02-01T04:27:11;4.00;99.90
9271;DHT22;4673;53.458;9.940;2023-02-01T04:29:36;4.00;99.90
9271;DHT22;4673;53.458;9.940;2023-02-01T04:32:02;4.00;99.90
9271;DHT22;4673;53.458;9.940;2023-02-01T04:34:28;4.10;99.90
9271;DHT22;4673;53.458;9.940;2023-02-01T04:36:53;4.10;99.90
9271;DHT22;4673;53.458;9.940;2023-02-01T04:39:19;4.00;99.90
9271;DHT22;4673;53.458;9.940;2023-02-01T04:41:44;4.00;99.90
9271;DHT22;4673;53.458;9.940;2023-02-01T04:44:17;4.10;99.90
9271;DHT22;4673;53.458;9.940;2023-02-01T04:46:44;4.00;99.90
9271;DHT22;4673;53.458;9.940;2023-02-01T04:49:11;4.00;99.90
9271;DHT22;4673;53.458;9.940;2023-02-01T04:51:37;4.00;99.90
9271;DHT22;4673;53.458;9.940;2023-02-01T04:54:02;4.00;99.90
9271;DHT22;4673;53.458;9.940;2023-02-01T04:56:28;4.10;99.90
9271;DHT22;4673;53.458;9.940;2023-02-01T04:58:54;4.00;99.90
9271;DHT22;4673;53.458;9.940;2023-02-01T05:01:20;4.00;99.90
9271;DHT22;4673;53.458;9.940;2023-02-01T05:03:46;4.00;99.90
9271;DHT22;4673;53.458;9.940;2023-02-01T05:06:11;4.00;99.90
9271;DHT22;4673;53.458;9.940;2023-02-01T05:08:37;4.00;99.90
9271;DHT22;4673;53.458;9.940;2023-02-01T05:11:06;3.90;99.90
9271;DHT22;4673;53.458;9.940;2023-02-01T05:13:32;3.80;99.90
9271;DHT22;4673;53.458;9.940;2023-02-01T05:16:16;3.60;99.90
9271;DHT22;4673;53.458;9.940;2023-02-01T05:18:42;3.40;99.90
9271;DHT22;4673;53.458;9.940;2023-02-01T05:21:08;3.20;99.90
9271;DHT22;4673;53.458;9.940;2023-02-01T05:23:33;2.90;99.90
9271;DHT22;4673;53.458;9.940;2023-02-01T05:26:19;2.60;99.90
9271;DHT22;4673;53.458;9.940;2023-02-01T05:28:44;2.50;99.90
9271;DHT22;4673;53.458;9.940;2023-02-01T05:31:10;2.40;99.90
9271;DHT22;4673;53.458;9.940;2023-02-01T05:33:36;2.20;99.90
9271;DHT22;4673;53.458;9.940;2023-02-01T05:36:02;2.10;99.90
9271;DHT22;4673;53.458;9.940;2023-02-01T05:38:28;2.10;99.90
9271;DHT22;4673;53.458;9.940;2023-02-01T05:40:55;2.00;99.90
9271;DHT22;4673;53.458;9.940;2023-02-01T05:43:21;2.10;99.90
9271;DHT22;4673;53.458;9.940;2023-02-01T05:45:47;2.20;99.90
9271;DHT22;4673;53.458;9.940;2023-02-01T05:48:12;2.20;99.90
9271;DHT22;4673;53.458;9.940;2023-02-01T05:50:38;2.30;99.90
9271;DHT22;4673;53.458;9.940;2023-02-01T05:53:04;2.20;99.90
9271;DHT22;4673;53.458;9.940;2023-02-01T05:55:33;2.20;99.90
9271;DHT22;4673;53.458;9.940;2023-02-01T05:57:58;2.10;99.90
9271;DHT22;4673;53.458;9.940;2023-02-01T06:00:24;2.20;99.90
9271;DHT22;4673;53.458;9.940;2023-02-01T06:02:50;2.30;99.90
9271;DHT22;4673;53.458;9.940;2023-02-01T06:05:15;2.30;99.90
9271;DHT22;4673;53.458;9.940;2023-02-01T06:07:41;2.40;99.90
9271;DHT22;4673;53.458;9.940;2023-02-01T06:10:08;2.40;99.90
9271;DHT22;4673;53.458;9.940;2023-02-01T06:12:33;2.50;99.90
9271;DHT22;4673;53.458;9.940;2023-02-01T06:14:59;2.60;99.90
9271;DHT22;4673;53.458;9.940;2023-02-01T06:17:25;2.70;99.90
9271;DHT22;4673;53.458;9.940;2023-02-01T06:19:51;2.80;99.90
9271;DHT22;4673;53.458;9.940;2023-02-01T06:22:17;2.80;99.90
9271;DHT22;4673;53.458;9.940;2023-02-01T06:24:43;2.90;99.90
9271;DHT22;4673;53.458;9.940;2023-02-01T06:27:08;2.90;99.90
9271;DHT22;4673;53.458;9.940;2023-02-01T06:29:35;2.90;99.90
9271;DHT22;4673;53.458;9.940;2023-02-01T06:32:00;3.00;99.90
9271;DHT22;4673;53.458;9.940;2023-02-01T06:34:26;3.10;99.90
9271;DHT22;4673;53.458;9.940;2023-02-01T06:36:52;3.10;99.90
9271;DHT22;4673;53.458;9.940;2023-02-01T06:39:18;3.20;99.90
9271;DHT22;4673;53.458;9.940;2023-02-01T06:41:48;3.10;99.90
9271;DHT22;4673;53.458;9.940;2023-02-01T06:44:14;3.20;99.90
9271;DHT22;4673;53.458;9.940;2023-02-01T06:46:40;3.30;99.90
9271;DHT22;4673;53.458;9.940;2023-02-01T06:49:06;3.40;99.90
9271;DHT22;4673;53.458;9.940;2023-02-01T06:51:32;3.40;99.90
9271;DHT22;4673;53.458;9.940;2023-02-01T06:53:58;3.40;99.90
9271;DHT22;4673;53.458;9.940;2023-02-01T06:56:24;3.50;99.90
9271;DHT22;4673;53.458;9.940;2023-02-01T06:58:50;3.50;99.90
9271;DHT22;4673;53.458;9.940;2023-02-01T07:01:16;3.50;99.90
9271;DHT22;4673;53.458;9.940;2023-02-01T07:03:42;3.60;99.90
9271;DHT22;4673;53.458;9.940;2023-02-01T07:06:08;3.60;99.90
9271;DHT22;4673;53.458;9.940;2023-02-01T07:08:36;3.60;99.90
9271;DHT22;4673;53.458;9.940;2023-02-01T07:11:07;3.60;99.90
9271;DHT22;4673;53.458;9.940;2023-02-01T07:13:33;3.60;99.90
9271;DHT22;4673;53.458;9.940;2023-02-01T07:16:04;3.60;99.90
9271;DHT22;4673;53.458;9.940;2023-02-01T07:18:31;3.60;99.90
9271;DHT22;4673;53.458;9.940;2023-02-01T07:20:57;3.50;99.90
9271;DHT22;4673;53.458;9.940;2023-02-01T07:23:25;3.40;99.90
9271;DHT22;4673;53.458;9.940;2023-02-01T07:25:58;3.40;99.90
9271;DHT22;4673;53.458;9.940;2023-02-01T07:28:25;3.60;99.90
9271;DHT22;4673;53.458;9.940;2023-02-01T07:30:51;3.40;99.90
9271;DHT22;4673;53.458;9.940;2023-02-01T07:33:21;3.50;99.90
9271;DHT22;4673;53.458;9.940;2023-02-01T07:35:49;3.50;99.90
9271;DHT22;4673;53.458;9.940;2023-02-01T07:38:15;3.60;99.90
9271;DHT22;4673;53.458;9.940;2023-02-01T07:40:41;3.60;99.90
9271;DHT22;4673;53.458;9.940;2023-02-01T07:43:08;3.70;99.90
9271;DHT22;4673;53.458;9.940;2023-02-01T07:45:34;3.80;99.90
9271;DHT22;4673;53.458;9.940;2023-02-01T07:48:00;3.80;99.90
9271;DHT22;4673;53.458;9.940;2023-02-01T07:50:26;3.80;99.90
9271;DHT22;4673;53.458;9.940;2023-02-01T07:52:52;4.00;99.90
9271;DHT22;4673;53.458;9.940;2023-02-01T07:55:19;4.10;99.90
9271;DHT22;4673;53.458;9.940;2023-02-01T07:57:45;4.10;99.90
9271;DHT22;4673;53.458;9.940;2023-02-01T08:00:11;4.30;99.90
9271;DHT22;4673;53.458;9.940;2023-02-01T08:02:59;4.20;99.90
9271;DHT22;4673;53.458;9.940;2023-02-01T08:05:25;4.20;99.90
9271;DHT22;4673;53.458;9.940;2023-02-01T08:07:51;4.30;99.90
9271;DHT22;4673;53.458;9.940;2023-02-01T08:10:18;4.30;99.90
9271;DHT22;4673;53.458;9.940;2023-02-01T08:12:43;4.30;99.90
9271;DHT22;4673;53.458;9.940;2023-02-01T08:15:14;4.30;99.90
9271;DHT22;4673;53.458;9.940;2023-02-01T08:17:49;4.30;99.90
9271;DHT22;4673;53.458;9.940;2023-02-01T08:20:16;4.20;99.90
9271;DHT22;4673;53.458;9.940;2023-02-01T08:22:42;4.20;99.90
9271;DHT22;4673;53.458;9.940;2023-02-01T08:25:08;4.30;99.90
9271;DHT22;4673;53.458;9.940;2023-02-01T08:27:34;4.40;99.90
9271;DHT22;4673;53.458;9.940;2023-02-01T08:29:59;4.50;99.90
9271;DHT22;4673;53.458;9.940;2023-02-01T08:32:26;4.50;99.90
9271;DHT22;4673;53.458;9.940;2023-02-01T08:34:52;4.70;99.90
9271;DHT22;4673;53.458;9.940;2023-02-01T08:37:17;4.90;99.90
9271;DHT22;4673;53.458;9.940;2023-02-01T08:39:44;5.10;99.90
9271;DHT22;4673;53.458;9.940;2023-02-01T08:42:10;5.20;99.90
9271;DHT22;4673;53.458;9.940;2023-02-01T08:44:56;5.20;99.90
9271;DHT22;4673;53.458;9.940;2023-02-01T08:47:22;5.30;99.90
9271;DHT22;4673;53.458;9.940;2023-02-01T08:49:47;5.20;99.90
9271;DHT22;4673;53.458;9.940;2023-02-01T08:52:13;5.20;99.90
9271;DHT22;4673;53.458;9.940;2023-02-01T08:54:38;5.30;99.90
9271;DHT22;4673;53.458;9.940;2023-02-01T08:57:06;5.40;99.90
9271;DHT22;4673;53.458;9.940;2023-02-01T08:59:32;5.40;99.90
9271;DHT22;4673;53.458;9.940;2023-02-01T09:01:58;5.50;99.90
9271;DHT22;4673;53.458;9.940;2023-02-01T09:04:23;5.40;99.90
9271;DHT22;4673;53.458;9.940;2023-02-01T09:06:49;5.40;99.90
9271;DHT22;4673;53.458;9.940;2023-02-01T09:09:15;5.40;99.90
9271;DHT22;4673;53.458;9.940;2023-02-01T09:11:40;5.60;99.90
9271;DHT22;4673;53.458;9.940;2023-02-01T09:14:06;5.60;99.90
9271;DHT22;4673;53.458;9.940;2023-02-01T09:16:31;5.50;99.90
9271;DHT22;4673;53.458;9.940;2023-02-01T09:18:57;5.40;99.90
9271;DHT22;4673;53.458;9.940;2023-02-01T09:21:23;5.50;99.90
9271;DHT22;4673;53.458;9.940;2023-02-01T09:23:51;5.50;99.90
9271;DHT22;4673;53.458;9.940;2023-02-01T09:26:17;5.40;99.90
9271;DHT22;4673;53.458;9.940;2023-02-01T09:28:43;5.40;99.90
9271;DHT22;4673;53.458;9.940;2023-02-01T09:31:09;5.50;99.90
9271;DHT22;4673;53.458;9.940;2023-02-01T09:33:35;5.50;99.90
9271;DHT22;4673;53.458;9.940;2023-02-01T09:36:03;5.60;99.90
9271;DHT22;4673;53.458;9.940;2023-02-01T09:38:30;5.70;99.90
9271;DHT22;4673;53.458;9.940;2023-02-01T09:40:59;5.80;99.90
9271;DHT22;4673;53.458;9.940;2023-02-01T09:46:49;6.00;99.70
9271;DHT22;4673;53.458;9.940;2023-02-01T09:49:20;6.10;98.40
9271;DHT22;4673;53.458;9.940;2023-02-01T09:51:49;6.00;97.60
9271;DHT22;4673;53.458;9.940;2023-02-01T09:54:23;6.10;98.30
9271;DHT22;4673;53.458;9.940;2023-02-01T09:56:58;6.10;97.60
9271;DHT22;4673;53.458;9.940;2023-02-01T09:59:40;6.20;97.20
9271;DHT22;4673;53.458;9.940;2023-02-01T10:02:19;6.20;96.40
9271;DHT22;4673;53.458;9.940;2023-02-01T10:04:47;6.30;96.30
9271;DHT22;4673;53.458;9.940;2023-02-01T10:10:21;6.40;95.60
9271;DHT22;4673;53.458;9.940;2023-02-01T10:21:39;6.20;96.50
9271;DHT22;4673;53.458;9.940;2023-02-01T10:26:25;6.10;96.20
9271;DHT22;4673;53.458;9.940;2023-02-01T10:28:55;6.00;96.40
9271;DHT22;4673;53.458;9.940;2023-02-01T10:31:24;5.90;97.00
9271;DHT22;4673;53.458;9.940;2023-02-01T10:33:58;5.80;97.30
9271;DHT22;4673;53.458;9.940;2023-02-01T10:36:36;5.80;98.10
9271;DHT22;4673;53.458;9.940;2023-02-01T10:39:05;5.70;98.90
9271;DHT22;4673;53.458;9.940;2023-02-01T10:41:36;5.80;99.20
9271;DHT22;4673;53.458;9.940;2023-02-01T10:44:11;5.70;99.60
9271;DHT22;4673;53.458;9.940;2023-02-01T10:46:38;5.70;99.90
9271;DHT22;4673;53.458;9.940;2023-02-01T10:49:05;5.70;99.90
9271;DHT22;4673;53.458;9.940;2023-02-01T10:54:14;5.60;99.90
9271;DHT22;4673;53.458;9.940;2023-02-01T10:56:43;5.60;99.90
9271;DHT22;4673;53.458;9.940;2023-02-01T10:59:16;5.70;99.90
9271;DHT22;4673;53.458;9.940;2023-02-01T11:01:45;5.70;99.90
9271;DHT22;4673;53.458;9.940;2023-02-01T11:04:17;5.70;99.90
9271;DHT22;4673;53.458;9.940;2023-02-01T11:06:47;5.70;99.90
9271;DHT22;4673;53.458;9.940;2023-02-01T11:09:32;5.70;99.90
9271;DHT22;4673;53.458;9.940;2023-02-01T11:12:00;5.50;99.90
9271;DHT22;4673;53.458;9.940;2023-02-01T11:16:58;5.50;99.90
9271;DHT22;4673;53.458;9.940;2023-02-01T11:19:25;5.50;99.90
9271;DHT22;4673;53.458;9.940;2023-02-01T11:21:59;5.60;99.90
9271;DHT22;4673;53.458;9.940;2023-02-01T11:24:29;5.60;99.90
9271;DHT22;4673;53.458;9.940;2023-02-01T11:27:00;5.60;99.90
9271;DHT22;4673;53.458;9.940;2023-02-01T11:29:40;5.60;99.90
9271;DHT22;4673;53.458;9.940;2023-02-01T11:32:08;5.70;99.90
9271;DHT22;4673;53.458;9.940;2023-02-01T11:34:47;5.80;99.90
9271;DHT22;4673;53.458;9.940;2023-02-01T11:37:36;5.70;99.90
9271;DHT22;4673;53.458;9.940;2023-02-01T11:43:12;5.70;99.90
9271;DHT22;4673;53.458;9.940;2023-02-01T11:45:39;5.70;99.90
9271;DHT22;4673;53.458;9.940;2023-02-01T11:48:15;5.80;99.90
9271;DHT22;4673;53.458;9.940;2023-02-01T11:50:44;5.70;99.90
9271;DHT22;4673;53.458;9.940;2023-02-01T11:53:20;5.60;99.90
9271;DHT22;4673;53.458;9.940;2023-02-01T11:56:08;5.70;99.90
9271;DHT22;4673;53.458;9.940;2023-02-01T12:04:29;5.20;99.90
9271;DHT22;4673;53.458;9.940;2023-02-01T12:07:05;5.30;99.90
9271;DHT22;4673;53.458;9.940;2023-02-01T12:12:19;5.20;99.90
9271;DHT22;4673;53.458;9.940;2023-02-01T12:34:34;5.10;99.90
9271;DHT22;4673;53.458;9.940;2023-02-01T12:39:53;4.80;99.90
9271;DHT22;4673;53.458;9.940;2023-02-01T12:42:40;4.60;99.90
9271;DHT22;4673;53.458;9.940;2023-02-01T12:45:25;4.50;99.90
9271;DHT22;4673;53.458;9.940;2023-02-01T12:48:21;4.40;99.90
9271;DHT22;4673;53.458;9.940;2023-02-01T12:50:55;4.40;99.90
9271;DHT22;4673;53.458;9.940;2023-02-01T12:58:53;4.20;99.90
9271;DHT22;4673;53.458;9.940;2023-02-01T13:01:35;4.20;99.90
9271;DHT22;4673;53.458;9.940;2023-02-01T13:07:00;4.00;99.90
9271;DHT22;4673;53.458;9.940;2023-02-01T13:09:29;3.90;99.90
9271;DHT22;4673;53.458;9.940;2023-02-01T13:12:02;3.90;99.90
9271;DHT22;4673;53.458;9.940;2023-02-01T13:14:37;3.80;99.90
9271;DHT22;4673;53.458;9.940;2023-02-01T13:17:09;3.80;99.90
9271;DHT22;4673;53.458;9.940;2023-02-01T13:19:43;3.80;99.90
9271;DHT22;4673;53.458;9.940;2023-02-01T13:22:25;3.80;99.90
9271;DHT22;4673;53.458;9.940;2023-02-01T13:24:56;3.90;99.90
9271;DHT22;4673;53.458;9.940;2023-02-01T13:27:22;4.00;99.90
9271;DHT22;4673;53.458;9.940;2023-02-01T13:29:58;3.80;99.90
9271;DHT22;4673;53.458;9.940;2023-02-01T13:33:22;3.90;99.90
9271;DHT22;4673;53.458;9.940;2023-02-01T13:40:49;3.80;99.90
9271;DHT22;4673;53.458;9.940;2023-02-01T13:43:27;3.70;99.90
9271;DHT22;4673;53.458;9.940;2023-02-01T13:46:04;3.70;99.90
9271;DHT22;4673;53.458;9.940;2023-02-01T13:48:38;3.70;99.90
9271;DHT22;4673;53.458;9.940;2023-02-01T13:51:05;3.80;99.90
9271;DHT22;4673;53.458;9.940;2023-02-01T13:53:34;3.90;99.90
9271;DHT22;4673;53.458;9.940;2023-02-01T13:56:21;3.80;99.90
9271;DHT22;4673;53.458;9.940;2023-02-01T13:58:48;3.90;99.90
9271;DHT22;4673;53.458;9.940;2023-02-01T14:11:53;4.30;99.90
9271;DHT22;4673;53.458;9.940;2023-02-01T14:19:25;4.40;99.90
9271;DHT22;4673;53.458;9.940;2023-02-01T14:21:59;4.50;99.90
9271;DHT22;4673;53.458;9.940;2023-02-01T14:26:55;4.60;99.90
9271;DHT22;4673;53.458;9.940;2023-02-01T14:29:50;4.60;99.90
9271;DHT22;4673;53.458;9.940;2023-02-01T14:32:23;4.60;99.90
9271;DHT22;4673;53.458;9.940;2023-02-01T14:34:55;4.50;99.90
9271;DHT22;4673;53.458;9.940;2023-02-01T14:39:56;4.40;99.90
9271;DHT22;4673;53.458;9.940;2023-02-01T14:58:01;3.60;99.90
9271;DHT22;4673;53.458;9.940;2023-02-01T15:00:30;3.60;99.90
9271;DHT22;4673;53.458;9.940;2023-02-01T15:03:20;3.60;99.90
9271;DHT22;4673;53.458;9.940;2023-02-01T15:05:55;3.60;99.90
9271;DHT22;4673;53.458;9.940;2023-02-01T15:08:26;3.50;99.90
9271;DHT22;4673;53.458;9.940;2023-02-01T15:10:54;3.60;99.90
9271;DHT22;4673;53.458;9.940;2023-02-01T15:13:25;3.60;99.90
9271;DHT22;4673;53.458;9.940;2023-02-01T15:18:35;3.70;99.90
9271;DHT22;4673;53.458;9.940;2023-02-01T15:21:03;3.70;99.90
9271;DHT22;4673;53.458;9.940;2023-02-01T15:23:29;3.80;99.90
9271;DHT22;4673;53.458;9.940;2023-02-01T15:25:56;3.70;99.90
9271;DHT22;4673;53.458;9.940;2023-02-01T15:28:22;3.80;99.90
9271;DHT22;4673;53.458;9.940;2023-02-01T15:33:26;3.50;99.90
9271;DHT22;4673;53.458;9.940;2023-02-01T15:35:54;3.40;99.90
9271;DHT22;4673;53.458;9.940;2023-02-01T15:43:29;3.40;99.90
9271;DHT22;4673;53.458;9.940;2023-02-01T15:46:00;3.30;99.90
9271;DHT22;4673;53.458;9.940;2023-02-01T15:48:30;3.30;99.90
9271;DHT22;4673;53.458;9.940;2023-02-01T15:50:57;3.30;99.90
9271;DHT22;4673;53.458;9.940;2023-02-01T15:53:24;3.30;99.90
9271;DHT22;4673;53.458;9.940;2023-02-01T15:55:58;3.30;99.90
9271;DHT22;4673;53.458;9.940;2023-02-01T15:58:26;3.30;99.90
9271;DHT22;4673;53.458;9.940;2023-02-01T16:00:55;3.40;99.90
9271;DHT22;4673;53.458;9.940;2023-02-01T16:06:00;3.50;99.90
9271;DHT22;4673;53.458;9.940;2023-02-01T16:08:28;3.50;99.90
9271;DHT22;4673;53.458;9.940;2023-02-01T16:11:21;3.50;99.90
9271;DHT22;4673;53.458;9.940;2023-02-01T16:13:48;3.60;99.90
9271;DHT22;4673;53.458;9.940;2023-02-01T16:16:13;3.80;99.90
9271;DHT22;4673;53.458;9.940;2023-02-01T16:18:40;3.60;99.90
9271;DHT22;4673;53.458;9.940;2023-02-01T16:21:06;3.70;99.90
9271;DHT22;4673;53.458;9.940;2023-02-01T16:23:36;3.70;99.90
9271;DHT22;4673;53.458;9.940;2023-02-01T16:26:03;3.70;99.90
9271;DHT22;4673;53.458;9.940;2023-02-01T16:28:30;3.70;99.90
9271;DHT22;4673;53.458;9.940;2023-02-01T16:30:55;3.80;99.90
9271;DHT22;4673;53.458;9.940;2023-02-01T16:33:22;3.70;99.90
9271;DHT22;4673;53.458;9.940;2023-02-01T16:35:49;3.90;99.90
9271;DHT22;4673;53.458;9.940;2023-02-01T16:38:17;3.90;99.90
9271;DHT22;4673;53.458;9.940;2023-02-01T16:40:45;3.90;99.90
9271;DHT22;4673;53.458;9.940;2023-02-01T16:43:17;4.00;99.90
9271;DHT22;4673;53.458;9.940;2023-02-01T16:45:44;4.00;99.90
9271;DHT22;4673;53.458;9.940;2023-02-01T16:50:46;4.10;99.90
9271;DHT22;4673;53.458;9.940;2023-02-01T16:53:14;4.10;99.90
9271;DHT22;4673;53.458;9.940;2023-02-01T16:55:41;4.10;99.90
9271;DHT22;4673;53.458;9.940;2023-02-01T16:58:09;4.10;99.90
9271;DHT22;4673;53.458;9.940;2023-02-01T17:00:34;4.20;99.90
9271;DHT22;4673;53.458;9.940;2023-02-01T17:03:03;4.20;99.90
9271;DHT22;4673;53.458;9.940;2023-02-01T17:05:28;4.30;99.90
9271;DHT22;4673;53.458;9.940;2023-02-01T17:07:56;4.30;99.90
9271;DHT22;4673;53.458;9.940;2023-02-01T17:10:25;4.30;99.90
9271;DHT22;4673;53.458;9.940;2023-02-01T17:12:52;4.30;99.90
9271;DHT22;4673;53.458;9.940;2023-02-01T17:15:18;4.40;99.90
9271;DHT22;4673;53.458;9.940;2023-02-01T17:17:43;4.30;99.90
9271;DHT22;4673;53.458;9.940;2023-02-01T17:20:20;4.30;99.90
9271;DHT22;4673;53.458;9.940;2023-02-01T17:22:46;4.40;99.90
9271;DHT22;4673;53.458;9.940;2023-02-01T17:25:20;4.40;99.90
9271;DHT22;4673;53.458;9.940;2023-02-01T17:27:47;4.40;99.90
9271;DHT22;4673;53.458;9.940;2023-02-01T17:30:14;4.40;99.90
9271;DHT22;4673;53.458;9.940;2023-02-01T17:32:40;4.40;99.90
9271;DHT22;4673;53.458;9.940;2023-02-01T17:35:21;4.40;99.90
9271;DHT22;4673;53.458;9.940;2023-02-01T17:37:47;4.40;99.90
9271;DHT22;4673;53.458;9.940;2023-02-01T17:40:13;4.50;99.90
9271;DHT22;4673;53.458;9.940;2023-02-01T17:42:39;4.40;99.90
9271;DHT22;4673;53.458;9.940;2023-02-01T17:45:23;4.40;99.90
9271;DHT22;4673;53.458;9.940;2023-02-01T17:47:51;4.40;99.90
9271;DHT22;4673;53.458;9.940;2023-02-01T17:50:17;4.30;99.60
9271;DHT22;4673;53.458;9.940;2023-02-01T17:52:42;4.30;99.00
9271;DHT22;4673;53.458;9.940;2023-02-01T17:55:20;4.30;98.90
9271;DHT22;4673;53.458;9.940;2023-02-01T17:57:47;4.30;98.60
9271;DHT22;4673;53.458;9.940;2023-02-01T18:00:14;4.30;98.20
9271;DHT22;4673;53.458;9.940;2023-02-01T18:02:41;4.20;97.90
9271;DHT22;4673;53.458;9.940;2023-02-01T18:05:23;4.30;98.00
9271;DHT22;4673;53.458;9.940;2023-02-01T18:07:51;4.20;97.50
9271;DHT22;4673;53.458;9.940;2023-02-01T18:10:17;4.30;97.70
9271;DHT22;4673;53.458;9.940;2023-02-01T18:12:43;4.30;97.10
9271;DHT22;4673;53.458;9.940;2023-02-01T18:15:21;4.20;96.70
9271;DHT22;4673;53.458;9.940;2023-02-01T18:17:47;4.20;97.00
9271;DHT22;4673;53.458;9.940;2023-02-01T18:20:24;4.10;96.80
9271;DHT22;4673;53.458;9.940;2023-02-01T18:22:50;4.10;96.80
9271;DHT22;4673;53.458;9.940;2023-02-01T18:27:49;4.00;96.80
9271;DHT22;4673;53.458;9.940;2023-02-01T18:30:17;4.00;97.00
9271;DHT22;4673;53.458;9.940;2023-02-01T18:32:43;3.90;97.00
9271;DHT22;4673;53.458;9.940;2023-02-01T18:35:22;3.80;96.70
9271;DHT22;4673;53.458;9.940;2023-02-01T18:37:50;3.80;96.70
9271;DHT22;4673;53.458;9.940;2023-02-01T18:40:18;3.70;97.10
9271;DHT22;4673;53.458;9.940;2023-02-01T18:42:44;3.70;97.10
9271;DHT22;4673;53.458;9.940;2023-02-01T18:45:27;3.70;97.20
9271;DHT22;4673;53.458;9.940;2023-02-01T18:47:53;3.70;97.50
9271;DHT22;4673;53.458;9.940;2023-02-01T18:50:19;3.70;97.80
9271;DHT22;4673;53.458;9.940;2023-02-01T18:52:45;3.70;98.00
9271;DHT22;4673;53.458;9.940;2023-02-01T18:55:11;3.70;98.00
9271;DHT22;4673;53.458;9.940;2023-02-01T18:57:38;3.70;98.20
9271;DHT22;4673;53.458;9.940;2023-02-01T19:00:06;3.80;98.50
9271;DHT22;4673;53.458;9.940;2023-02-01T19:02:32;3.80;98.50